»·PEaware :: N12SA KTOA-KOXR

N12SA :: KTOA-KOXR

FLIGHT INFORMATION

Flight Status: Arrived
Operator: Privately registered:
United States
More flights under this callsign
Pilot: Johnny M. (21174)
Aircraft: CESSNA 172 SKYHAWK
(C172)
More flights by this aircraft type
Origin: KTOA Zamperini
United States
Destination: KOXR Oxnard
United States
More flights between these airports :: More routes between these airports
Route: LAX170 LIMBO V64 SMO125 SMO VNY
File this flight plan on PilotEdge
Remarks: TEC route SCTP26
Altitude:
(Current/Filed)
4,000ft
Speed:
(Current/Filed)
110kts
Departed: 26-Mar-20 08:18 AM
Arrived: 26-Mar-20 09:00 AM
Distance/Time
Traveled:
49nm/0:42
Distance/Time
To Go:
Arrived

Flight Plot

Page will automatically refresh every two minutes.

Flight plan parsing failed; only flown route is shown


Map Options




Map Legend


Flown Route
Filed Route
Departure Airport
Arrival Airport
Navaid (VOR, NDB)
Fix

Horizontal Profiles

Position Reports

Time Latitude Longitude Heading Altitude Ground
Speed
26-Mar-20 08:03 33.796920 -118.332414 358 107ft 6kts
26-Mar-20 08:04 33.797726 -118.333643 269 107ft 6kts
26-Mar-20 08:05 33.797719 -118.333962 270 107ft 0kts
26-Mar-20 08:06 33.797719 -118.333962 270 107ft 0kts
26-Mar-20 08:07 33.797719 -118.333962 270 107ft 0kts
26-Mar-20 08:08 33.797719 -118.333962 270 107ft 0kts
26-Mar-20 08:09 33.797719 -118.333962 270 107ft 0kts
26-Mar-20 08:10 33.797719 -118.333962 270 107ft 0kts
26-Mar-20 08:11 33.797719 -118.333962 270 107ft 0kts
26-Mar-20 08:12 33.797719 -118.333962 270 107ft 0kts
26-Mar-20 08:13 33.797719 -118.333962 270 107ft 0kts
26-Mar-20 08:14 33.797719 -118.333962 270 107ft 0kts
26-Mar-20 08:15 33.797883 -118.334274 342 107ft 10kts
26-Mar-20 08:16 33.799108 -118.333285 36 107ft 0kts
26-Mar-20 08:17 33.803410 -118.338631 308 139ft 79kts
26-Mar-20 08:18 33.817881 -118.358721 308 1150ft 86kts
26-Mar-20 08:19 33.833671 -118.381325 308 2050ft 89kts
26-Mar-20 08:20 33.850038 -118.405102 309 2798ft 95kts
26-Mar-20 08:21 33.865834 -118.428349 309 3685ft 85kts
26-Mar-20 08:22 33.870180 -118.454181 217 4000ft 111kts
26-Mar-20 08:23 33.837302 -118.450490 179 3998ft 120kts
26-Mar-20 08:24 33.804477 -118.449824 188 3997ft 116kts
26-Mar-20 08:25 33.786070 -118.428066 60 3996ft 131kts
26-Mar-20 08:26 33.811346 -118.399526 36 3996ft 118kts
26-Mar-20 08:27 33.835628 -118.373737 36 4000ft 119kts
26-Mar-20 08:28 33.859999 -118.348077 36 4001ft 118kts
26-Mar-20 08:29 33.885620 -118.327543 345 3999ft 109kts
26-Mar-20 08:30 33.907475 -118.350513 318 4003ft 106kts
26-Mar-20 08:31 33.929320 -118.373494 320 4003ft 106kts
26-Mar-20 08:32 33.951874 -118.396081 321 3999ft 106kts
26-Mar-20 08:33 33.974516 -118.418430 321 3996ft 106kts
26-Mar-20 08:34 33.997359 -118.440895 321 3994ft 106kts
26-Mar-20 08:35 34.023502 -118.455218 349 3993ft 107kts
26-Mar-20 08:36 34.052883 -118.460726 350 3991ft 107kts
26-Mar-20 08:37 34.082520 -118.465728 351 3989ft 108kts
26-Mar-20 08:38 34.108233 -118.477696 292 3989ft 108kts
26-Mar-20 08:39 34.116656 -118.512848 288 3990ft 109kts
26-Mar-20 08:40 34.124953 -118.548088 288 3991ft 108kts
26-Mar-20 08:41 34.133354 -118.583272 288 3993ft 108kts
26-Mar-20 08:42 34.141731 -118.618281 288 3995ft 108kts
26-Mar-20 08:43 34.149866 -118.652260 288 3998ft 108kts
26-Mar-20 08:44 34.158206 -118.687111 288 4001ft 108kts
26-Mar-20 08:45 34.166576 -118.722064 288 4003ft 108kts
26-Mar-20 08:46 34.169960 -118.758707 277 4007ft 109kts
26-Mar-20 08:47 34.172428 -118.795740 277 4010ft 110kts
26-Mar-20 08:48 34.174930 -118.832882 278 4011ft 111kts
26-Mar-20 08:49 34.177506 -118.870248 278 4011ft 111kts
26-Mar-20 08:50 34.180082 -118.907712 278 4011ft 111kts
26-Mar-20 08:51 34.182814 -118.945236 280 4010ft 111kts
26-Mar-20 08:52 34.189413 -118.980230 287 3772ft 99kts
26-Mar-20 08:53 34.196262 -119.012522 288 3275ft 99kts
26-Mar-20 08:54 34.201439 -119.045452 277 2778ft 101kts
26-Mar-20 08:55 34.200865 -119.082242 265 2150ft 116kts
26-Mar-20 08:56 34.200016 -119.121056 275 1387ft 106kts
26-Mar-20 08:57 34.200612 -119.154153 274 830ft 94kts
26-Mar-20 08:58 34.200528 -119.183327 273 393ft 75kts
26-Mar-20 08:59 34.200382 -119.203150 184 45ft 16kts
26-Mar-20 09:00 34.199377 -119.204963 268 45ft 0kts
26-Mar-20 09:01 34.199377 -119.204963 268 45ft 0kts
26-Mar-20 09:02 34.199377 -119.204963 268 45ft 0kts
26-Mar-20 09:03 34.199377 -119.204963 268 45ft 0kts
26-Mar-20 09:04 34.199377 -119.204963 268 45ft 0kts
26-Mar-20 09:05 34.199377 -119.204963 268 45ft 0kts
26-Mar-20 09:06 34.199377 -119.204963 268 45ft 0kts
26-Mar-20 09:07 34.199377 -119.204963 268 45ft 0kts
26-Mar-20 09:08 34.199377 -119.204963 268 45ft 0kts
26-Mar-20 09:09 34.199377 -119.204963 268 45ft 0kts
26-Mar-20 09:10 34.199377 -119.204963 268 45ft 0kts
26-Mar-20 09:11 34.199377 -119.204963 268 45ft 0kts
26-Mar-20 09:12 34.199377 -119.204963 268 45ft 0kts

Navigation Log

Ident Type
Flight plan parsing failed, navigation log unavailable